createdAt,value
2023-04-29T00:01:40.460Z,17.20
2023-04-29T00:04:09.637Z,17.10
2023-04-29T00:06:38.040Z,17.10
2023-04-29T00:09:06.260Z,17.20
2023-04-29T00:11:35.828Z,17.30
2023-04-29T00:14:04.136Z,17.30
2023-04-29T00:16:32.286Z,17.30
2023-04-29T00:19:00.468Z,17.30
2023-04-29T00:21:28.855Z,17.30
2023-04-29T00:23:57.036Z,17.30
2023-04-29T00:26:25.062Z,17.20
2023-04-29T00:28:54.724Z,17.30
2023-04-29T00:31:22.681Z,17.40
2023-04-29T00:33:51.174Z,17.40
2023-04-29T00:36:19.214Z,17.50
2023-04-29T00:38:47.182Z,17.50
2023-04-29T00:41:15.340Z,17.50
2023-04-29T00:43:43.786Z,17.50
2023-04-29T00:46:14.120Z,17.60
2023-04-29T00:48:42.552Z,17.60
2023-04-29T00:51:11.362Z,17.60
2023-04-29T00:53:40.058Z,17.60
2023-04-29T00:56:08.993Z,17.60
2023-04-29T00:58:39.608Z,17.40
2023-04-29T01:01:07.874Z,17.40
2023-04-29T01:03:37.758Z,17.30
2023-04-29T01:06:13.698Z,17.30
2023-04-29T01:08:54.929Z,17.30
2023-04-29T01:11:29.421Z,17.30
2023-04-29T01:14:03.669Z,17.30
2023-04-29T01:16:38.297Z,17.30
2023-04-29T01:19:22.483Z,17.20
2023-04-29T01:21:51.000Z,17.20
2023-04-29T01:24:20.877Z,17.20
2023-04-29T01:26:57.027Z,17.20
2023-04-29T01:29:47.765Z,17.20
2023-04-29T01:32:22.131Z,17.20
2023-04-29T01:34:57.109Z,17.10
2023-04-29T01:37:35.196Z,17.10
2023-04-29T01:40:13.241Z,17.10
2023-04-29T01:42:52.213Z,17.10
2023-04-29T01:45:23.062Z,17.10
2023-04-29T01:47:54.211Z,17.10
2023-04-29T01:50:22.451Z,17.10
2023-04-29T01:52:50.785Z,17.10
2023-04-29T01:55:20.901Z,17.00
2023-04-29T01:57:57.128Z,16.90
2023-04-29T02:00:45.486Z,16.80
2023-04-29T02:03:14.167Z,16.90
2023-04-29T02:05:46.187Z,16.90
2023-04-29T02:08:14.549Z,17.00
2023-04-29T02:10:54.914Z,17.00
2023-04-29T02:13:38.237Z,17.10
2023-04-29T02:16:10.778Z,17.10
2023-04-29T02:18:43.059Z,17.10
2023-04-29T02:21:12.736Z,17.00
2023-04-29T02:23:40.947Z,17.00
2023-04-29T02:26:10.929Z,17.00
2023-04-29T02:28:39.101Z,17.00
2023-04-29T02:31:07.239Z,16.90
2023-04-29T02:33:35.276Z,16.90
2023-04-29T02:36:03.345Z,16.90
2023-04-29T02:38:31.296Z,16.90
2023-04-29T02:40:59.239Z,16.80
2023-04-29T02:43:31.360Z,16.80
2023-04-29T02:46:00.677Z,16.80
2023-04-29T02:48:29.219Z,16.80
2023-04-29T02:50:57.301Z,16.90
2023-04-29T02:53:25.209Z,16.90
2023-04-29T02:55:53.208Z,16.80
2023-04-29T02:58:21.153Z,16.80
2023-04-29T03:00:51.061Z,16.80
2023-04-29T03:03:19.716Z,16.80
2023-04-29T03:05:47.945Z,16.80
2023-04-29T03:08:16.123Z,16.80
2023-04-29T03:10:44.183Z,16.80
2023-04-29T03:13:12.207Z,16.80
2023-04-29T03:15:40.494Z,16.80
2023-04-29T03:18:10.476Z,16.80
2023-04-29T03:20:39.441Z,16.80
2023-04-29T03:23:07.292Z,16.80
2023-04-29T03:25:35.572Z,16.70
2023-04-29T03:28:03.591Z,16.80
2023-04-29T03:30:32.504Z,16.80
2023-04-29T03:33:00.871Z,16.70
2023-04-29T03:35:32.373Z,16.60
2023-04-29T03:38:28.594Z,16.60
2023-04-29T03:40:56.715Z,16.60
2023-04-29T03:43:24.813Z,16.60
2023-04-29T03:45:52.946Z,16.60
2023-04-29T03:48:23.675Z,16.60
2023-04-29T03:50:54.828Z,16.50
2023-04-29T03:53:23.436Z,16.50
2023-04-29T03:55:51.622Z,16.50
2023-04-29T03:58:19.923Z,16.40
2023-04-29T04:00:48.209Z,16.40
2023-04-29T04:03:24.268Z,16.40
2023-04-29T04:05:54.348Z,16.50
2023-04-29T04:08:25.656Z,16.40
2023-04-29T04:11:03.486Z,16.50
2023-04-29T04:13:43.536Z,16.50
2023-04-29T04:16:12.577Z,16.50
2023-04-29T04:18:41.452Z,16.50
2023-04-29T04:21:12.146Z,16.50
2023-04-29T04:23:44.416Z,16.50
2023-04-29T04:26:15.938Z,16.50
2023-04-29T04:28:55.729Z,16.50
2023-04-29T04:31:49.896Z,16.50
2023-04-29T04:34:20.626Z,16.40
2023-04-29T04:36:52.919Z,16.40
2023-04-29T04:39:20.856Z,16.40
2023-04-29T04:41:49.417Z,16.40
2023-04-29T04:44:17.500Z,16.40
2023-04-29T04:46:57.668Z,16.40
2023-04-29T04:49:42.109Z,16.30
2023-04-29T04:52:12.124Z,16.30
2023-04-29T04:54:41.048Z,16.30
2023-04-29T04:57:16.891Z,16.30
2023-04-29T04:59:45.895Z,16.30
2023-04-29T05:02:14.287Z,16.30
2023-04-29T05:04:43.109Z,16.30
2023-04-29T05:07:12.976Z,16.30
2023-04-29T05:09:59.166Z,16.30
2023-04-29T05:12:30.988Z,16.40
2023-04-29T05:15:00.870Z,16.40
2023-04-29T05:17:30.804Z,16.50
2023-04-29T05:19:58.753Z,16.50
2023-04-29T05:22:28.222Z,16.50
2023-04-29T05:25:02.880Z,16.50
2023-04-29T05:27:33.318Z,16.60
2023-04-29T05:30:03.112Z,16.60
2023-04-29T05:32:31.081Z,16.60
2023-04-29T05:34:59.361Z,16.60
2023-04-29T05:37:31.162Z,16.70
2023-04-29T05:40:16.066Z,16.70
2023-04-29T05:42:44.416Z,16.70
2023-04-29T05:45:13.764Z,16.70
2023-04-29T05:47:41.725Z,16.70
2023-04-29T05:50:09.838Z,16.80
2023-04-29T05:52:39.351Z,16.80
2023-04-29T05:55:07.470Z,16.80
2023-04-29T05:57:35.402Z,16.80
2023-04-29T06:00:04.208Z,16.80
2023-04-29T06:02:54.902Z,16.80
2023-04-29T06:05:26.665Z,16.90
2023-04-29T06:08:11.127Z,17.00
2023-04-29T06:10:53.503Z,17.00
2023-04-29T06:13:21.713Z,17.10
2023-04-29T06:15:50.683Z,17.10
2023-04-29T06:18:19.895Z,17.20
2023-04-29T06:20:48.637Z,17.20
2023-04-29T06:23:18.263Z,17.20
2023-04-29T06:25:46.748Z,17.30
2023-04-29T06:28:15.486Z,17.40
2023-04-29T06:30:43.607Z,17.40
2023-04-29T06:33:12.840Z,17.30
2023-04-29T06:35:41.956Z,17.20
2023-04-29T06:38:41.180Z,17.20
2023-04-29T06:41:29.791Z,17.30
2023-04-29T06:44:14.017Z,17.50
2023-04-29T06:46:42.256Z,17.50
2023-04-29T06:49:18.192Z,17.60
2023-04-29T06:51:46.678Z,17.70
2023-04-29T06:54:16.119Z,17.70
2023-04-29T06:56:44.284Z,17.70
2023-04-29T06:59:12.929Z,17.70
2023-04-29T07:01:43.437Z,17.80
2023-04-29T07:04:13.932Z,17.80
2023-04-29T07:06:42.396Z,17.70
2023-04-29T07:09:10.587Z,17.80
2023-04-29T07:11:40.249Z,17.80
2023-04-29T07:14:08.774Z,17.70
2023-04-29T07:16:37.384Z,17.80
2023-04-29T07:19:11.520Z,17.90
2023-04-29T07:21:40.496Z,17.90
2023-04-29T07:24:08.825Z,18.00
2023-04-29T07:26:36.946Z,18.00
2023-04-29T07:29:06.593Z,18.00
2023-04-29T07:31:38.388Z,18.20
2023-04-29T07:34:06.810Z,18.20
2023-04-29T07:36:35.896Z,18.20
2023-04-29T07:39:05.296Z,18.20
2023-04-29T07:41:34.031Z,18.30
2023-04-29T07:44:02.724Z,18.40
2023-04-29T07:46:32.796Z,18.30
2023-04-29T07:49:01.492Z,18.30
2023-04-29T07:51:30.457Z,18.50
2023-04-29T07:53:59.528Z,18.60
2023-04-29T07:56:28.065Z,18.60
2023-04-29T08:07:25.964Z,18.70
2023-04-29T08:09:54.415Z,18.90
2023-04-29T08:12:22.585Z,19.00
2023-04-29T08:14:50.999Z,19.00
2023-04-29T08:17:19.309Z,18.90
2023-04-29T08:19:47.809Z,19.00
2023-04-29T08:22:16.024Z,19.10
2023-04-29T08:24:46.059Z,19.20
2023-04-29T08:27:15.591Z,19.30
2023-04-29T08:29:43.964Z,19.30
2023-04-29T08:32:12.532Z,19.50
2023-04-29T08:34:42.258Z,19.70
2023-04-29T08:37:10.514Z,19.80
2023-04-29T08:39:38.831Z,19.80
2023-04-29T08:42:11.336Z,19.80
2023-04-29T08:44:41.527Z,19.80
2023-04-29T08:47:11.330Z,19.80
2023-04-29T08:49:39.772Z,19.80
2023-04-29T08:52:08.148Z,19.90
2023-04-29T08:54:36.641Z,19.90
2023-04-29T08:57:07.269Z,19.90
2023-04-29T08:59:37.400Z,20.00
2023-04-29T09:02:08.780Z,20.10
2023-04-29T09:04:44.163Z,20.10
2023-04-29T09:07:13.782Z,20.20
2023-04-29T09:09:42.828Z,20.30
2023-04-29T09:12:11.044Z,20.40
2023-04-29T09:14:40.893Z,20.40
2023-04-29T09:17:09.034Z,20.40
2023-04-29T09:19:44.695Z,20.30
2023-04-29T09:22:12.800Z,20.20
2023-04-29T09:24:40.678Z,20.20
2023-04-29T09:27:09.456Z,20.10
2023-04-29T09:29:38.875Z,20.10
2023-04-29T09:32:24.151Z,20.00
2023-04-29T09:34:52.561Z,20.00
2023-04-29T09:37:28.352Z,20.00
2023-04-29T09:39:56.901Z,20.00
2023-04-29T09:42:25.097Z,20.00
2023-04-29T09:44:53.465Z,20.00
2023-04-29T09:47:33.177Z,20.00
2023-04-29T09:50:14.405Z,19.90
2023-04-29T09:52:45.406Z,19.90
2023-04-29T09:55:15.642Z,19.90
2023-04-29T09:57:46.044Z,19.90
2023-04-29T10:00:17.961Z,19.90
2023-04-29T10:02:50.189Z,20.00
2023-04-29T10:05:19.367Z,20.00
2023-04-29T10:07:51.562Z,20.00
2023-04-29T10:10:22.086Z,19.90
2023-04-29T10:12:53.059Z,19.80
2023-04-29T10:15:27.901Z,19.80
2023-04-29T10:18:04.154Z,19.80
2023-04-29T10:20:33.707Z,19.70
2023-04-29T10:23:03.132Z,19.70
2023-04-29T10:25:31.933Z,19.70
2023-04-29T10:28:02.435Z,19.70
2023-04-29T10:30:31.453Z,19.70
2023-04-29T10:33:03.712Z,19.70
2023-04-29T10:35:32.163Z,19.70
2023-04-29T10:38:02.029Z,19.70
2023-04-29T10:40:40.774Z,19.80
2023-04-29T10:43:11.707Z,19.80
2023-04-29T10:45:41.144Z,19.80
2023-04-29T10:48:15.506Z,19.90
2023-04-29T10:51:05.774Z,20.00
2023-04-29T10:53:33.944Z,20.10
2023-04-29T10:56:09.172Z,20.20
2023-04-29T10:58:39.214Z,20.30
2023-04-29T11:01:11.458Z,20.50
2023-04-29T11:04:01.296Z,20.70
2023-04-29T11:06:41.427Z,20.70
2023-04-29T11:09:12.363Z,21.00
2023-04-29T11:12:03.747Z,21.20
2023-04-29T11:14:37.101Z,21.50
2023-04-29T11:17:08.346Z,21.80
2023-04-29T11:19:41.490Z,22.00
2023-04-29T11:22:12.631Z,21.90
2023-04-29T11:24:52.258Z,21.90
2023-04-29T11:27:25.677Z,21.80
2023-04-29T11:30:00.873Z,21.80
2023-04-29T11:32:30.440Z,21.90
2023-04-29T11:35:10.233Z,21.80
2023-04-29T11:37:39.472Z,21.70
2023-04-29T11:40:09.156Z,22.00
2023-04-29T11:42:44.332Z,22.20
2023-04-29T11:45:12.876Z,22.30
2023-04-29T11:47:46.014Z,22.30
2023-04-29T11:50:20.536Z,22.30
2023-04-29T11:52:50.032Z,22.40
2023-04-29T11:55:18.788Z,22.70
2023-04-29T11:57:51.500Z,22.60
2023-04-29T12:00:19.798Z,22.70
2023-04-29T12:02:48.683Z,22.70
2023-04-29T12:05:19.894Z,22.70
2023-04-29T12:07:52.058Z,23.00
2023-04-29T12:10:21.801Z,23.30
2023-04-29T12:12:50.362Z,23.40
2023-04-29T12:15:18.708Z,23.70
2023-04-29T12:17:47.867Z,23.80
2023-04-29T12:20:19.259Z,23.70
2023-04-29T12:22:48.055Z,23.40
2023-04-29T12:25:18.533Z,23.30
2023-04-29T12:27:47.001Z,23.20
2023-04-29T12:30:15.598Z,23.00
2023-04-29T12:32:44.035Z,22.90
2023-04-29T12:35:20.413Z,22.70
2023-04-29T12:37:51.613Z,22.70
2023-04-29T12:40:21.309Z,22.60
2023-04-29T12:42:49.744Z,22.60
2023-04-29T12:45:29.451Z,22.60
2023-04-29T12:47:58.975Z,22.50
2023-04-29T12:50:34.436Z,22.50
2023-04-29T12:53:35.241Z,22.40
2023-04-29T12:56:03.758Z,22.60
2023-04-29T12:58:33.068Z,22.80
2023-04-29T13:01:01.805Z,23.20
2023-04-29T13:03:30.316Z,23.60
2023-04-29T13:06:00.611Z,23.90
2023-04-29T13:08:28.715Z,24.00
2023-04-29T13:11:05.207Z,24.10
2023-04-29T13:13:33.627Z,24.20
2023-04-29T13:16:02.169Z,24.30
2023-04-29T13:18:32.273Z,24.30
2023-04-29T13:21:04.984Z,24.30
2023-04-29T13:23:33.674Z,24.30
2023-04-29T13:26:01.988Z,24.20
2023-04-29T13:28:31.149Z,24.30
2023-04-29T13:30:59.325Z,24.30
2023-04-29T13:33:28.536Z,24.30
2023-04-29T13:35:57.641Z,24.10
2023-04-29T13:38:28.278Z,23.90
2023-04-29T13:40:56.951Z,23.90
2023-04-29T13:43:35.936Z,23.80
2023-04-29T13:46:07.831Z,23.70
2023-04-29T13:49:14.268Z,23.80
2023-04-29T13:52:06.809Z,23.90
2023-04-29T14:04:20.932Z,24.80
2023-04-29T14:06:49.520Z,25.20
2023-04-29T14:09:20.603Z,25.30
2023-04-29T14:11:49.574Z,25.80
2023-04-29T14:14:18.669Z,26.30
2023-04-29T14:16:47.274Z,26.80
2023-04-29T14:19:15.906Z,26.80
2023-04-29T14:21:44.463Z,26.50
2023-04-29T14:24:12.952Z,26.50
2023-04-29T14:26:43.724Z,27.20
2023-04-29T14:29:12.543Z,27.50
2023-04-29T14:31:40.775Z,27.20
2023-04-29T14:34:09.413Z,27.00
2023-04-29T14:36:37.877Z,26.60
2023-04-29T14:39:06.412Z,25.80
2023-04-29T14:41:34.594Z,25.50
2023-04-29T14:44:04.516Z,25.00
2023-04-29T14:46:33.101Z,24.70
2023-04-29T14:49:02.179Z,24.40
2023-04-29T14:51:31.438Z,24.30
2023-04-29T14:54:00.513Z,24.40
2023-04-29T14:56:29.054Z,23.90
2023-04-29T14:58:57.563Z,23.50
2023-04-29T15:01:29.295Z,23.20
2023-04-29T15:03:59.968Z,23.10
2023-04-29T15:06:28.829Z,23.10
2023-04-29T15:08:57.267Z,23.00
2023-04-29T15:11:26.477Z,22.80
2023-04-29T15:13:54.645Z,22.80
2023-04-29T15:16:22.930Z,22.80
2023-04-29T15:18:52.886Z,22.70
2023-04-29T15:21:22.375Z,22.60
2023-04-29T15:23:50.447Z,22.60
2023-04-29T15:26:18.708Z,22.50
2023-04-29T15:28:47.061Z,22.40
2023-04-29T15:31:15.248Z,22.50
2023-04-29T15:33:43.513Z,22.70
2023-04-29T15:36:13.764Z,22.80
2023-04-29T15:38:42.083Z,22.90
2023-04-29T15:41:10.523Z,22.70
2023-04-29T15:43:40.538Z,22.60
2023-04-29T15:46:09.658Z,22.50
2023-04-29T15:48:39.248Z,22.50
2023-04-29T15:51:10.198Z,22.40
2023-04-29T15:53:40.204Z,22.40
2023-04-29T15:56:08.791Z,22.30
2023-04-29T15:58:37.408Z,22.30
2023-04-29T16:01:06.204Z,22.20
2023-04-29T16:03:35.278Z,22.20
2023-04-29T16:06:03.944Z,22.10
2023-04-29T16:08:31.717Z,22.10
2023-04-29T16:11:01.485Z,22.10
2023-04-29T16:13:29.373Z,22.00
2023-04-29T16:15:57.382Z,22.00
2023-04-29T16:18:24.996Z,21.90
2023-04-29T16:20:52.930Z,21.90
2023-04-29T16:23:20.987Z,21.90
2023-04-29T16:25:49.018Z,21.80
2023-04-29T16:28:18.495Z,21.70
2023-04-29T16:30:47.255Z,21.70
2023-04-29T16:33:16.685Z,21.60
2023-04-29T16:35:44.355Z,21.60
2023-04-29T16:38:13.010Z,21.50
2023-04-29T16:40:40.806Z,21.50
2023-04-29T16:43:08.634Z,21.40
2023-04-29T16:45:37.986Z,21.40
2023-04-29T16:48:06.313Z,21.20
2023-04-29T16:50:38.188Z,21.00
2023-04-29T16:53:06.125Z,20.90
2023-04-29T16:55:33.917Z,20.80
2023-04-29T16:58:01.749Z,20.60
2023-04-29T17:00:29.438Z,20.50
2023-04-29T17:02:59.720Z,20.40
2023-04-29T17:05:27.791Z,20.40
2023-04-29T17:07:56.156Z,20.40
2023-04-29T17:10:25.165Z,20.40
2023-04-29T17:12:53.414Z,20.40
2023-04-29T17:15:21.182Z,20.40
2023-04-29T17:17:49.470Z,20.40
2023-04-29T17:20:18.886Z,20.20
2023-04-29T17:22:47.039Z,20.10
2023-04-29T17:25:15.060Z,20.10
2023-04-29T17:27:44.734Z,20.20
2023-04-29T17:30:13.595Z,20.10
2023-04-29T17:32:43.899Z,20.10
2023-04-29T17:35:11.962Z,20.10
2023-04-29T17:37:43.690Z,19.90
2023-04-29T17:40:12.592Z,19.80
2023-04-29T17:42:43.907Z,19.80
2023-04-29T17:45:17.995Z,19.90
2023-04-29T17:47:46.079Z,19.80
2023-04-29T17:50:14.174Z,19.60
2023-04-29T17:52:44.296Z,19.60
2023-04-29T17:55:12.184Z,19.60
2023-04-29T17:57:41.028Z,19.60
2023-04-29T18:00:11.389Z,19.60
2023-04-29T18:02:40.060Z,19.40
2023-04-29T18:05:08.471Z,19.30
2023-04-29T18:07:36.268Z,19.30
2023-04-29T18:10:07.374Z,19.20
2023-04-29T18:12:35.312Z,19.10
2023-04-29T18:15:06.216Z,19.10
2023-04-29T18:17:34.187Z,19.10
2023-04-29T18:20:15.390Z,19.30
2023-04-29T18:22:48.456Z,19.30
2023-04-29T18:25:17.994Z,19.40
2023-04-29T18:27:45.814Z,19.50
2023-04-29T18:30:14.675Z,19.50
2023-04-29T18:32:42.782Z,19.60
2023-04-29T18:35:10.815Z,19.60
2023-04-29T18:37:38.655Z,19.70
2023-04-29T18:40:07.900Z,19.70
2023-04-29T18:42:37.383Z,19.60
2023-04-29T18:45:06.499Z,19.70
2023-04-29T18:47:34.455Z,19.90
2023-04-29T18:50:02.283Z,19.70
2023-04-29T18:52:30.092Z,19.70
2023-04-29T18:54:57.808Z,19.60
2023-04-29T18:57:25.843Z,19.50
2023-04-29T18:59:55.730Z,19.60
2023-04-29T19:02:23.727Z,19.70
2023-04-29T19:04:51.557Z,19.80
2023-04-29T19:07:19.240Z,19.80
2023-04-29T19:09:56.016Z,19.70
2023-04-29T19:12:25.950Z,19.70
2023-04-29T19:15:17.380Z,19.60
2023-04-29T19:17:45.297Z,19.60
2023-04-29T19:20:13.492Z,19.70
2023-04-29T19:22:41.294Z,19.70
2023-04-29T19:25:10.410Z,19.60
2023-04-29T19:27:40.910Z,19.50
2023-04-29T19:30:09.888Z,19.50
2023-04-29T19:32:39.232Z,19.50
2023-04-29T19:35:07.796Z,19.50
2023-04-29T19:37:35.693Z,19.40
2023-04-29T19:40:04.212Z,19.40
2023-04-29T19:42:31.863Z,19.40
2023-04-29T19:44:59.612Z,19.40
2023-04-29T19:47:27.266Z,19.30
2023-04-29T19:49:57.123Z,19.20
2023-04-29T19:52:25.826Z,19.20
2023-04-29T19:54:53.568Z,19.20
2023-04-29T19:57:21.354Z,19.10
2023-04-29T19:59:49.110Z,19.10
2023-04-29T20:02:17.490Z,19.10
2023-04-29T20:04:45.418Z,19.10
2023-04-29T20:07:15.194Z,19.10
2023-04-29T20:09:45.170Z,19.00
2023-04-29T20:12:13.078Z,19.00
2023-04-29T20:14:41.436Z,19.00
2023-04-29T20:17:09.485Z,19.00
2023-04-29T20:19:40.803Z,19.00
2023-04-29T20:22:09.259Z,19.10
2023-04-29T20:24:38.816Z,19.10
2023-04-29T20:27:07.621Z,19.10
2023-04-29T20:29:35.757Z,19.10
2023-04-29T20:32:04.669Z,19.00
2023-04-29T20:34:32.603Z,19.00
2023-04-29T20:37:00.770Z,19.00
2023-04-29T20:39:34.808Z,19.10
2023-04-29T20:42:06.780Z,19.10
2023-04-29T20:44:35.600Z,19.10
2023-04-29T20:47:04.729Z,19.20
2023-04-29T20:49:32.891Z,19.10
2023-04-29T20:52:01.277Z,19.00
2023-04-29T20:54:29.276Z,18.90
2023-04-29T20:56:56.975Z,19.00
2023-04-29T20:59:26.558Z,19.00
2023-04-29T21:01:54.469Z,19.00
2023-04-29T21:04:23.474Z,18.90
2023-04-29T21:06:52.991Z,18.70
2023-04-29T21:09:21.649Z,18.70
2023-04-29T21:11:49.543Z,18.80
2023-04-29T21:14:17.497Z,18.90
2023-04-29T21:16:46.861Z,18.90
2023-04-29T21:19:14.607Z,18.90
2023-04-29T21:21:42.497Z,18.90
2023-04-29T21:24:10.278Z,18.90
2023-04-29T21:26:38.090Z,18.90
2023-04-29T21:29:06.108Z,18.90
2023-04-29T21:31:34.069Z,18.90
2023-04-29T21:34:03.555Z,18.90
2023-04-29T21:36:32.302Z,18.80
2023-04-29T21:39:00.327Z,18.80
2023-04-29T21:41:30.036Z,18.80
2023-04-29T21:43:59.686Z,18.80
2023-04-29T21:46:28.610Z,18.70
2023-04-29T21:48:57.626Z,18.70
2023-04-29T21:51:27.854Z,18.60
2023-04-29T21:53:55.816Z,18.60
2023-04-29T21:56:24.718Z,18.60
2023-04-29T21:58:53.788Z,18.60
2023-04-29T22:01:39.964Z,18.60
2023-04-29T22:04:08.800Z,18.50
2023-04-29T22:06:38.389Z,18.50
2023-04-29T22:09:09.507Z,18.40
2023-04-29T22:11:37.573Z,18.50
2023-04-29T22:14:05.783Z,18.50
2023-04-29T22:16:36.184Z,18.60
2023-04-29T22:19:04.430Z,18.60
2023-04-29T22:21:33.367Z,18.50
2023-04-29T22:24:02.830Z,18.50
2023-04-29T22:26:30.692Z,18.50
2023-04-29T22:28:58.645Z,18.50
2023-04-29T22:31:27.350Z,18.60
2023-04-29T22:33:55.567Z,18.50
2023-04-29T22:36:23.480Z,18.60
2023-04-29T22:38:51.331Z,18.60
2023-04-29T22:41:21.959Z,18.60
2023-04-29T22:43:49.963Z,18.60
2023-04-29T22:46:17.780Z,18.50
2023-04-29T22:48:45.634Z,18.30
2023-04-29T22:51:13.368Z,18.10
2023-04-29T22:53:41.320Z,18.10
2023-04-29T22:56:09.192Z,18.10
2023-04-29T22:58:39.662Z,18.20
2023-04-29T23:01:08.518Z,18.30
2023-04-29T23:03:37.259Z,18.30
2023-04-29T23:06:05.358Z,18.20
2023-04-29T23:08:33.176Z,18.20
2023-04-29T23:11:01.177Z,18.20
2023-04-29T23:13:29.016Z,18.30
2023-04-29T23:16:00.137Z,18.30
2023-04-29T23:18:28.154Z,18.40
2023-04-29T23:20:57.026Z,18.40
2023-04-29T23:23:24.997Z,18.40
2023-04-29T23:25:52.837Z,18.40
2023-04-29T23:28:21.371Z,18.40
2023-04-29T23:30:49.378Z,18.30
2023-04-29T23:33:18.762Z,18.40
2023-04-29T23:35:49.908Z,18.40
2023-04-29T23:38:18.970Z,18.30
2023-04-29T23:40:47.348Z,18.30
2023-04-29T23:43:15.375Z,18.30
2023-04-29T23:45:46.006Z,18.30
2023-04-29T23:48:15.909Z,18.30
2023-04-29T23:50:45.232Z,18.30
2023-04-29T23:53:13.172Z,18.40
2023-04-29T23:55:41.153Z,18.40
2023-04-29T23:58:09.030Z,18.40
